Aviation Digital Data Service (ADDS)

Output produced by METARs form (1714 UTC 24 February 2017)
found at http://aviationweather.gov/adds/metars/
 
KBGR 241141Z 2412/2512 00000KT P6SM BKN250 
     FM241700 VRB03KT P6SM OVC025 
     FM242200 00000KT P6SM OVC008 
     FM242300 00000KT P6SM OVC003 
     FM250200 00000KT 3SM -RA OVC003 
     FM250600 00000KT 4SM BR OVC003